sensor_id;sensor_type;location;lat;lon;timestamp;pressure;altitude;pressure_sealevel;temperature;humidity
26320;BME280;14024;52.226;5.200;2023-08-31T00:02:02;100764.25;;;12.07;87.05
26320;BME280;14024;52.226;5.200;2023-08-31T00:04:29;100764.25;;;12.07;87.15
26320;BME280;14024;52.226;5.200;2023-08-31T00:06:55;100756.56;;;12.03;87.48
26320;BME280;14024;52.226;5.200;2023-08-31T00:09:22;100760.00;;;12.05;87.76
26320;BME280;14024;52.226;5.200;2023-08-31T00:11:49;100753.81;;;12.04;87.83
26320;BME280;14024;52.226;5.200;2023-08-31T00:14:15;100754.50;;;12.08;87.72
26320;BME280;14024;52.226;5.200;2023-08-31T00:16:40;100749.84;;;12.12;87.57
26320;BME280;14024;52.226;5.200;2023-08-31T00:19:05;100750.03;;;12.08;87.87
26320;BME280;14024;52.226;5.200;2023-08-31T00:21:31;100756.88;;;12.13;87.55
26320;BME280;14024;52.226;5.200;2023-08-31T00:23:56;100757.81;;;12.12;87.84
26320;BME280;14024;52.226;5.200;2023-08-31T00:26:22;100759.47;;;12.14;87.86
26320;BME280;14024;52.226;5.200;2023-08-31T00:28:47;100762.78;;;12.18;87.91
26320;BME280;14024;52.226;5.200;2023-08-31T00:31:15;100758.81;;;12.25;87.97
26320;BME280;14024;52.226;5.200;2023-08-31T00:33:40;100747.09;;;12.29;87.80
26320;BME280;14024;52.226;5.200;2023-08-31T00:36:05;100750.28;;;12.34;87.66
26320;BME280;14024;52.226;5.200;2023-08-31T00:38:31;100751.25;;;12.33;87.82
26320;BME280;14024;52.226;5.200;2023-08-31T00:40:56;100757.06;;;12.39;87.58
26320;BME280;14024;52.226;5.200;2023-08-31T00:43:22;100746.53;;;12.38;88.07
26320;BME280;14024;52.226;5.200;2023-08-31T00:45:48;100735.72;;;12.41;88.06
26320;BME280;14024;52.226;5.200;2023-08-31T00:48:15;100744.81;;;12.37;88.03
26320;BME280;14024;52.226;5.200;2023-08-31T00:50:45;100744.91;;;12.35;88.57
26320;BME280;14024;52.226;5.200;2023-08-31T00:53:11;100752.88;;;12.35;88.59
26320;BME280;14024;52.226;5.200;2023-08-31T00:55:36;100749.28;;;12.36;88.46
26320;BME280;14024;52.226;5.200;2023-08-31T00:58:04;100746.53;;;12.38;88.56
26320;BME280;14024;52.226;5.200;2023-08-31T01:03:35;100749.38;;;12.49;88.70
26320;BME280;14024;52.226;5.200;2023-08-31T01:06:13;100740.94;;;12.57;88.23
26320;BME280;14024;52.226;5.200;2023-08-31T01:08:59;100736.13;;;12.63;88.42
26320;BME280;14024;52.226;5.200;2023-08-31T01:11:45;100728.31;;;12.74;88.33
26320;BME280;14024;52.226;5.200;2023-08-31T01:14:23;100733.47;;;12.77;87.44
26320;BME280;14024;52.226;5.200;2023-08-31T01:16:53;100754.84;;;12.90;87.30
26320;BME280;14024;52.226;5.200;2023-08-31T01:19:45;100770.03;;;13.02;86.97
26320;BME280;14024;52.226;5.200;2023-08-31T01:23:06;100767.00;;;13.08;87.23
26320;BME280;14024;52.226;5.200;2023-08-31T01:25:24;100758.16;;;13.08;86.80
26320;BME280;14024;52.226;5.200;2023-08-31T01:27:50;100764.19;;;13.11;87.20
26320;BME280;14024;52.226;5.200;2023-08-31T01:30:16;100770.34;;;12.97;86.97
26320;BME280;14024;52.226;5.200;2023-08-31T01:32:45;100768.44;;;13.00;87.18
26320;BME280;14024;52.226;5.200;2023-08-31T01:35:11;100767.50;;;13.01;87.38
26320;BME280;14024;52.226;5.200;2023-08-31T01:40:17;100765.41;;;13.06;88.23
26320;BME280;14024;52.226;5.200;2023-08-31T01:42:46;100772.41;;;13.07;87.80
26320;BME280;14024;52.226;5.200;2023-08-31T01:45:15;100760.91;;;13.06;87.52
26320;BME280;14024;52.226;5.200;2023-08-31T01:47:41;100763.50;;;13.08;87.17
26320;BME280;14024;52.226;5.200;2023-08-31T01:50:07;100756.13;;;13.13;87.25
26320;BME280;14024;52.226;5.200;2023-08-31T01:52:32;100767.63;;;13.13;86.13
26320;BME280;14024;52.226;5.200;2023-08-31T01:54:58;100756.69;;;13.18;85.65
26320;BME280;14024;52.226;5.200;2023-08-31T01:57:23;100758.28;;;13.20;85.88
26320;BME280;14024;52.226;5.200;2023-08-31T01:59:49;100753.16;;;13.17;85.54
26320;BME280;14024;52.226;5.200;2023-08-31T02:02:14;100747.53;;;13.08;86.20
26320;BME280;14024;52.226;5.200;2023-08-31T02:04:39;100751.34;;;13.04;86.43
26320;BME280;14024;52.226;5.200;2023-08-31T02:07:05;100766.72;;;12.98;86.60
26320;BME280;14024;52.226;5.200;2023-08-31T02:09:30;100765.59;;;13.03;86.38
26320;BME280;14024;52.226;5.200;2023-08-31T02:11:56;100770.53;;;13.09;85.86
26320;BME280;14024;52.226;5.200;2023-08-31T02:14:25;100764.34;;;13.08;85.41
26320;BME280;14024;52.226;5.200;2023-08-31T02:16:51;100775.69;;;13.12;86.18
26320;BME280;14024;52.226;5.200;2023-08-31T02:19:16;100782.03;;;13.09;86.43
26320;BME280;14024;52.226;5.200;2023-08-31T02:21:41;100775.31;;;13.18;85.67
26320;BME280;14024;52.226;5.200;2023-08-31T02:24:07;100771.78;;;13.17;86.08
26320;BME280;14024;52.226;5.200;2023-08-31T02:26:35;100768.38;;;13.15;85.79
26320;BME280;14024;52.226;5.200;2023-08-31T02:29:01;100773.88;;;13.12;86.00
26320;BME280;14024;52.226;5.200;2023-08-31T02:31:27;100769.59;;;13.10;86.06
26320;BME280;14024;52.226;5.200;2023-08-31T02:33:52;100766.00;;;13.11;85.56
26320;BME280;14024;52.226;5.200;2023-08-31T02:36:18;100752.84;;;13.08;85.96
26320;BME280;14024;52.226;5.200;2023-08-31T02:38:45;100762.75;;;13.06;86.13
26320;BME280;14024;52.226;5.200;2023-08-31T02:41:11;100760.53;;;12.98;86.38
26320;BME280;14024;52.226;5.200;2023-08-31T02:43:38;100758.44;;;12.89;85.98
26320;BME280;14024;52.226;5.200;2023-08-31T02:46:04;100761.03;;;12.90;86.29
26320;BME280;14024;52.226;5.200;2023-08-31T02:48:32;100756.06;;;12.84;86.49
26320;BME280;14024;52.226;5.200;2023-08-31T02:50:58;100756.28;;;12.81;86.08
26320;BME280;14024;52.226;5.200;2023-08-31T02:53:27;100751.63;;;12.85;86.29
26320;BME280;14024;52.226;5.200;2023-08-31T02:55:52;100756.34;;;12.80;86.37
26320;BME280;14024;52.226;5.200;2023-08-31T02:58:17;100750.94;;;12.81;86.88
26320;BME280;14024;52.226;5.200;2023-08-31T03:00:44;100753.13;;;12.89;86.20
26320;BME280;14024;52.226;5.200;2023-08-31T03:03:13;100748.00;;;12.86;85.71
26320;BME280;14024;52.226;5.200;2023-08-31T03:05:38;100758.94;;;12.81;85.42
26320;BME280;14024;52.226;5.200;2023-08-31T03:08:04;100755.63;;;12.78;85.58
26320;BME280;14024;52.226;5.200;2023-08-31T03:10:29;100761.78;;;12.78;85.69
26320;BME280;14024;52.226;5.200;2023-08-31T03:12:55;100760.44;;;12.71;85.43
26320;BME280;14024;52.226;5.200;2023-08-31T03:15:20;100764.63;;;12.75;85.56
26320;BME280;14024;52.226;5.200;2023-08-31T03:17:45;100769.34;;;12.70;85.58
26320;BME280;14024;52.226;5.200;2023-08-31T03:20:11;100770.50;;;12.80;85.83
26320;BME280;14024;52.226;5.200;2023-08-31T03:22:36;100773.25;;;12.79;85.71
26320;BME280;14024;52.226;5.200;2023-08-31T03:25:01;100775.63;;;12.83;85.21
26320;BME280;14024;52.226;5.200;2023-08-31T03:27:27;100775.63;;;12.83;85.08
26320;BME280;14024;52.226;5.200;2023-08-31T03:29:52;100774.97;;;12.80;85.60
26320;BME280;14024;52.226;5.200;2023-08-31T03:32:18;100783.34;;;12.74;85.86
26320;BME280;14024;52.226;5.200;2023-08-31T03:34:44;100773.44;;;12.76;85.96
26320;BME280;14024;52.226;5.200;2023-08-31T03:37:10;100779.25;;;12.68;85.98
26320;BME280;14024;52.226;5.200;2023-08-31T03:39:35;100780.78;;;12.72;86.31
26320;BME280;14024;52.226;5.200;2023-08-31T03:42:02;100769.34;;;12.70;85.82
26320;BME280;14024;52.226;5.200;2023-08-31T03:44:27;100777.16;;;12.73;85.64
26320;BME280;14024;52.226;5.200;2023-08-31T03:46:53;100782.38;;;12.75;86.06
26320;BME280;14024;52.226;5.200;2023-08-31T03:49:18;100786.56;;;12.79;86.08
26320;BME280;14024;52.226;5.200;2023-08-31T03:51:43;100793.50;;;12.81;85.69
26320;BME280;14024;52.226;5.200;2023-08-31T03:54:09;100785.03;;;12.75;86.01
26320;BME280;14024;52.226;5.200;2023-08-31T03:56:34;100784.28;;;12.73;86.02
26320;BME280;14024;52.226;5.200;2023-08-31T03:59:01;100764.03;;;12.70;86.93
26320;BME280;14024;52.226;5.200;2023-08-31T04:01:28;100788.56;;;12.75;86.68
26320;BME280;14024;52.226;5.200;2023-08-31T04:03:54;100781.06;;;12.82;86.44
26320;BME280;14024;52.226;5.200;2023-08-31T04:06:19;100780.22;;;12.81;86.47
26320;BME280;14024;52.226;5.200;2023-08-31T04:08:45;100779.06;;;12.85;86.84
26320;BME280;14024;52.226;5.200;2023-08-31T04:11:10;100782.09;;;12.79;86.74
26320;BME280;14024;52.226;5.200;2023-08-31T04:13:36;100782.94;;;12.80;87.51
26320;BME280;14024;52.226;5.200;2023-08-31T04:16:01;100787.69;;;12.75;87.54
26320;BME280;14024;52.226;5.200;2023-08-31T04:18:27;100792.94;;;12.76;87.72
26320;BME280;14024;52.226;5.200;2023-08-31T04:20:53;100791.41;;;12.72;88.43
26320;BME280;14024;52.226;5.200;2023-08-31T04:23:19;100793.47;;;12.67;88.43
26320;BME280;14024;52.226;5.200;2023-08-31T04:25:47;100786.28;;;12.69;87.77
26320;BME280;14024;52.226;5.200;2023-08-31T04:28:16;100785.69;;;12.64;88.23
26320;BME280;14024;52.226;5.200;2023-08-31T04:30:42;100788.94;;;12.69;88.03
26320;BME280;14024;52.226;5.200;2023-08-31T04:33:08;100791.59;;;12.69;88.38
26320;BME280;14024;52.226;5.200;2023-08-31T04:35:33;100791.50;;;12.71;88.31
26320;BME280;14024;52.226;5.200;2023-08-31T04:37:59;100797.09;;;12.66;88.66
26320;BME280;14024;52.226;5.200;2023-08-31T04:40:24;100809.53;;;12.66;89.00
26320;BME280;14024;52.226;5.200;2023-08-31T04:42:50;100813.03;;;12.66;88.77
26320;BME280;14024;52.226;5.200;2023-08-31T04:45:16;100815.94;;;12.77;88.38
26320;BME280;14024;52.226;5.200;2023-08-31T04:47:42;100813.06;;;12.80;87.95
26320;BME280;14024;52.226;5.200;2023-08-31T04:50:08;100824.28;;;12.85;88.01
26320;BME280;14024;52.226;5.200;2023-08-31T04:52:33;100821.81;;;12.82;87.95
26320;BME280;14024;52.226;5.200;2023-08-31T04:55:05;100823.50;;;12.83;87.86
26320;BME280;14024;52.226;5.200;2023-08-31T04:57:32;100827.88;;;12.84;88.14
26320;BME280;14024;52.226;5.200;2023-08-31T04:59:58;100836.41;;;12.75;88.57
26320;BME280;14024;52.226;5.200;2023-08-31T05:02:24;100823.25;;;12.74;88.54
26320;BME280;14024;52.226;5.200;2023-08-31T05:04:50;100825.44;;;12.81;88.69
26320;BME280;14024;52.226;5.200;2023-08-31T05:07:16;100833.41;;;12.81;88.72
26320;BME280;14024;52.226;5.200;2023-08-31T05:09:41;100840.06;;;12.88;88.62
26320;BME280;14024;52.226;5.200;2023-08-31T05:12:07;100832.06;;;12.88;88.91
26320;BME280;14024;52.226;5.200;2023-08-31T05:14:33;100846.06;;;12.92;88.64
26320;BME280;14024;52.226;5.200;2023-08-31T05:17:05;100844.63;;;12.86;89.19
26320;BME280;14024;52.226;5.200;2023-08-31T05:19:30;100853.34;;;12.88;89.15
26320;BME280;14024;52.226;5.200;2023-08-31T05:21:56;100861.75;;;12.96;88.75
26320;BME280;14024;52.226;5.200;2023-08-31T05:24:21;100854.53;;;12.98;88.84
26320;BME280;14024;52.226;5.200;2023-08-31T05:26:47;100856.25;;;13.00;88.18
26320;BME280;14024;52.226;5.200;2023-08-31T05:29:12;100864.22;;;13.00;87.84
26320;BME280;14024;52.226;5.200;2023-08-31T05:31:37;100863.28;;;13.01;88.25
26320;BME280;14024;52.226;5.200;2023-08-31T05:34:04;100856.16;;;13.01;88.32
26320;BME280;14024;52.226;5.200;2023-08-31T05:36:29;100859.09;;;12.96;88.26
26320;BME280;14024;52.226;5.200;2023-08-31T05:38:55;100861.91;;;12.93;88.53
26320;BME280;14024;52.226;5.200;2023-08-31T05:41:20;100863.56;;;12.96;88.81
26320;BME280;14024;52.226;5.200;2023-08-31T05:43:46;100868.59;;;13.01;88.50
26320;BME280;14024;52.226;5.200;2023-08-31T05:46:11;100877.16;;;13.06;88.53
26320;BME280;14024;52.226;5.200;2023-08-31T05:48:36;100875.44;;;13.05;89.17
26320;BME280;14024;52.226;5.200;2023-08-31T05:51:02;100877.84;;;13.09;89.16
26320;BME280;14024;52.226;5.200;2023-08-31T05:53:29;100891.63;;;13.16;89.08
26320;BME280;14024;52.226;5.200;2023-08-31T05:55:55;100887.28;;;13.15;88.89
26320;BME280;14024;52.226;5.200;2023-08-31T05:58:31;100892.78;;;13.12;89.25
26320;BME280;14024;52.226;5.200;2023-08-31T06:00:56;100891.22;;;13.08;89.57
26320;BME280;14024;52.226;5.200;2023-08-31T06:03:22;100885.72;;;13.11;89.71
26320;BME280;14024;52.226;5.200;2023-08-31T06:05:47;100882.66;;;13.03;89.95
26320;BME280;14024;52.226;5.200;2023-08-31T06:08:13;100877.25;;;13.04;89.37
26320;BME280;14024;52.226;5.200;2023-08-31T06:10:38;100879.47;;;13.12;88.99
26320;BME280;14024;52.226;5.200;2023-08-31T06:13:04;100883.66;;;13.16;88.85
26320;BME280;14024;52.226;5.200;2023-08-31T06:15:29;100886.53;;;13.27;88.20
26320;BME280;14024;52.226;5.200;2023-08-31T06:17:55;100887.75;;;13.21;87.50
26320;BME280;14024;52.226;5.200;2023-08-31T06:20:20;100887.56;;;13.24;88.35
26320;BME280;14024;52.226;5.200;2023-08-31T06:22:45;100899.19;;;13.23;87.69
26320;BME280;14024;52.226;5.200;2023-08-31T06:25:12;100892.22;;;13.21;88.17
26320;BME280;14024;52.226;5.200;2023-08-31T06:27:41;100894.69;;;13.24;87.75
26320;BME280;14024;52.226;5.200;2023-08-31T06:30:08;100887.28;;;13.15;88.39
26320;BME280;14024;52.226;5.200;2023-08-31T06:32:34;100893.63;;;13.12;87.74
26320;BME280;14024;52.226;5.200;2023-08-31T06:34:59;100896.09;;;13.15;88.52
26320;BME280;14024;52.226;5.200;2023-08-31T06:37:25;100903.72;;;13.21;88.01
26320;BME280;14024;52.226;5.200;2023-08-31T06:39:50;100903.66;;;13.37;88.67
26320;BME280;14024;52.226;5.200;2023-08-31T06:42:16;100899.09;;;13.53;87.72
26320;BME280;14024;52.226;5.200;2023-08-31T06:44:41;100900.31;;;13.62;88.13
26320;BME280;14024;52.226;5.200;2023-08-31T06:47:06;100898.31;;;13.65;87.79
26320;BME280;14024;52.226;5.200;2023-08-31T06:49:33;100906.44;;;13.64;88.07
26320;BME280;14024;52.226;5.200;2023-08-31T06:52:00;100902.81;;;13.51;88.70
26320;BME280;14024;52.226;5.200;2023-08-31T06:54:25;100906.69;;;13.45;88.31
26320;BME280;14024;52.226;5.200;2023-08-31T06:56:51;100916.59;;;13.57;88.60
26320;BME280;14024;52.226;5.200;2023-08-31T06:59:16;100912.91;;;13.60;88.71
26320;BME280;14024;52.226;5.200;2023-08-31T07:01:42;100913.34;;;13.66;88.23
26320;BME280;14024;52.226;5.200;2023-08-31T07:04:08;100915.25;;;13.78;87.76
26320;BME280;14024;52.226;5.200;2023-08-31T07:06:35;100926.25;;;14.01;87.83
26320;BME280;14024;52.226;5.200;2023-08-31T07:09:01;100924.34;;;14.17;87.37
26320;BME280;14024;52.226;5.200;2023-08-31T07:11:26;100927.94;;;14.16;87.55
26320;BME280;14024;52.226;5.200;2023-08-31T07:13:52;100931.31;;;14.32;87.05
26320;BME280;14024;52.226;5.200;2023-08-31T07:16:18;100927.28;;;14.26;86.15
26320;BME280;14024;52.226;5.200;2023-08-31T07:18:43;100938.38;;;14.33;86.24
26320;BME280;14024;52.226;5.200;2023-08-31T07:21:09;100936.56;;;14.48;85.67
26320;BME280;14024;52.226;5.200;2023-08-31T07:23:34;100946.75;;;14.41;85.90
26320;BME280;14024;52.226;5.200;2023-08-31T07:26:00;100948.31;;;14.45;85.35
26320;BME280;14024;52.226;5.200;2023-08-31T07:28:26;100952.06;;;14.55;85.21
26320;BME280;14024;52.226;5.200;2023-08-31T07:31:05;100951.88;;;14.58;84.57
26320;BME280;14024;52.226;5.200;2023-08-31T07:33:33;100954.59;;;14.71;84.78
26320;BME280;14024;52.226;5.200;2023-08-31T07:36:00;100953.22;;;14.78;84.92
26320;BME280;14024;52.226;5.200;2023-08-31T07:38:26;100956.59;;;14.67;84.47
26320;BME280;14024;52.226;5.200;2023-08-31T07:40:52;100972.34;;;14.85;83.56
26320;BME280;14024;52.226;5.200;2023-08-31T07:43:18;100969.34;;;14.77;82.87
26320;BME280;14024;52.226;5.200;2023-08-31T07:45:43;100968.34;;;14.78;84.41
26320;BME280;14024;52.226;5.200;2023-08-31T07:48:09;100973.25;;;14.71;84.40
26320;BME280;14024;52.226;5.200;2023-08-31T07:50:34;100977.22;;;14.78;84.38
26320;BME280;14024;52.226;5.200;2023-08-31T07:53:00;100976.06;;;14.82;84.46
26320;BME280;14024;52.226;5.200;2023-08-31T07:55:25;100975.34;;;14.93;85.04
26320;BME280;14024;52.226;5.200;2023-08-31T07:57:51;100969.63;;;14.99;84.56
26320;BME280;14024;52.226;5.200;2023-08-31T08:00:17;100977.19;;;15.05;85.63
26320;BME280;14024;52.226;5.200;2023-08-31T08:02:45;100984.53;;;14.89;85.54
26320;BME280;14024;52.226;5.200;2023-08-31T08:05:11;100975.97;;;14.84;86.03
26320;BME280;14024;52.226;5.200;2023-08-31T08:07:36;100977.06;;;14.94;85.78
26320;BME280;14024;52.226;5.200;2023-08-31T08:10:02;100971.69;;;15.08;86.19
26320;BME280;14024;52.226;5.200;2023-08-31T08:12:27;100972.19;;;15.13;86.17
26320;BME280;14024;52.226;5.200;2023-08-31T08:15:01;100985.53;;;15.13;86.29
26320;BME280;14024;52.226;5.200;2023-08-31T08:17:27;100980.75;;;15.18;85.94
26320;BME280;14024;52.226;5.200;2023-08-31T08:19:53;100988.34;;;15.24;85.69
26320;BME280;14024;52.226;5.200;2023-08-31T08:22:19;100980.69;;;15.32;85.87
26320;BME280;14024;52.226;5.200;2023-08-31T08:24:44;100992.81;;;15.11;85.47
26320;BME280;14024;52.226;5.200;2023-08-31T08:27:10;100976.72;;;15.25;85.71
26320;BME280;14024;52.226;5.200;2023-08-31T08:29:35;100993.94;;;15.34;85.55
26320;BME280;14024;52.226;5.200;2023-08-31T08:32:01;100983.84;;;15.51;84.83
26320;BME280;14024;52.226;5.200;2023-08-31T08:34:28;100990.16;;;15.76;84.78
26320;BME280;14024;52.226;5.200;2023-08-31T08:36:54;100998.38;;;15.73;83.72
26320;BME280;14024;52.226;5.200;2023-08-31T08:39:19;100992.16;;;15.59;82.83
26320;BME280;14024;52.226;5.200;2023-08-31T08:41:45;100991.22;;;15.73;83.33
26320;BME280;14024;52.226;5.200;2023-08-31T08:44:12;100996.88;;;15.94;82.84
26320;BME280;14024;52.226;5.200;2023-08-31T08:46:40;100997.94;;;16.04;81.35
26320;BME280;14024;52.226;5.200;2023-08-31T08:49:06;101019.44;;;15.90;81.73
26320;BME280;14024;52.226;5.200;2023-08-31T08:51:32;101026.28;;;15.69;81.12
26320;BME280;14024;52.226;5.200;2023-08-31T08:53:59;101037.25;;;15.51;79.82
26320;BME280;14024;52.226;5.200;2023-08-31T08:56:25;101014.03;;;15.39;80.88
26320;BME280;14024;52.226;5.200;2023-08-31T08:58:51;101000.44;;;15.17;80.91
26320;BME280;14024;52.226;5.200;2023-08-31T09:01:17;101006.41;;;15.21;79.34
26320;BME280;14024;52.226;5.200;2023-08-31T09:03:43;101013.88;;;15.15;77.39
26320;BME280;14024;52.226;5.200;2023-08-31T09:06:09;101008.13;;;15.22;78.23
26320;BME280;14024;52.226;5.200;2023-08-31T09:08:35;101006.34;;;15.35;77.74
26320;BME280;14024;52.226;5.200;2023-08-31T09:11:02;101010.28;;;15.29;77.92
26320;BME280;14024;52.226;5.200;2023-08-31T09:13:29;101009.41;;;15.29;77.42
26320;BME280;14024;52.226;5.200;2023-08-31T09:15:55;101013.38;;;15.36;77.42
26320;BME280;14024;52.226;5.200;2023-08-31T09:18:30;101010.75;;;15.48;77.23
26320;BME280;14024;52.226;5.200;2023-08-31T09:20:57;101013.22;;;15.64;76.36
26320;BME280;14024;52.226;5.200;2023-08-31T09:23:23;101018.16;;;15.83;76.61
26320;BME280;14024;52.226;5.200;2023-08-31T09:25:51;101015.91;;;16.02;77.79
26320;BME280;14024;52.226;5.200;2023-08-31T09:28:20;101022.41;;;16.23;76.49
26320;BME280;14024;52.226;5.200;2023-08-31T09:30:47;101014.63;;;16.44;76.16
26320;BME280;14024;52.226;5.200;2023-08-31T09:33:15;101018.19;;;16.44;75.38
26320;BME280;14024;52.226;5.200;2023-08-31T09:35:51;101017.50;;;16.66;75.22
26320;BME280;14024;52.226;5.200;2023-08-31T09:38:17;101024.75;;;16.77;74.48
26320;BME280;14024;52.226;5.200;2023-08-31T09:40:43;101019.91;;;17.06;73.81
26320;BME280;14024;52.226;5.200;2023-08-31T09:43:08;101018.06;;;17.30;73.81
26320;BME280;14024;52.226;5.200;2023-08-31T09:45:34;101015.28;;;17.31;73.23
26320;BME280;14024;52.226;5.200;2023-08-31T09:48:02;101012.94;;;17.27;70.49
26320;BME280;14024;52.226;5.200;2023-08-31T09:50:29;101017.28;;;17.17;71.57
26320;BME280;14024;52.226;5.200;2023-08-31T09:53:03;101013.19;;;17.00;71.73
26320;BME280;14024;52.226;5.200;2023-08-31T09:55:30;101015.75;;;16.78;70.73
26320;BME280;14024;52.226;5.200;2023-08-31T09:57:57;101017.91;;;16.73;69.95
26320;BME280;14024;52.226;5.200;2023-08-31T10:00:25;101013.81;;;16.80;70.43
26320;BME280;14024;52.226;5.200;2023-08-31T10:02:52;101024.59;;;16.91;68.69
26320;BME280;14024;52.226;5.200;2023-08-31T10:05:19;101022.59;;;17.06;68.01
26320;BME280;14024;52.226;5.200;2023-08-31T10:07:45;101023.81;;;17.36;68.08
26320;BME280;14024;52.226;5.200;2023-08-31T10:10:11;101029.63;;;17.65;68.21
26320;BME280;14024;52.226;5.200;2023-08-31T10:12:38;101020.97;;;17.62;66.79
26320;BME280;14024;52.226;5.200;2023-08-31T10:15:06;101022.78;;;17.96;67.14
26320;BME280;14024;52.226;5.200;2023-08-31T10:17:32;101022.25;;;18.24;65.74
26320;BME280;14024;52.226;5.200;2023-08-31T10:19:57;101033.00;;;18.13;60.91
26320;BME280;14024;52.226;5.200;2023-08-31T10:22:23;101018.50;;;18.16;60.64
26320;BME280;14024;52.226;5.200;2023-08-31T10:24:58;101016.41;;;18.08;57.39
26320;BME280;14024;52.226;5.200;2023-08-31T10:27:24;101024.94;;;18.24;59.26
26320;BME280;14024;52.226;5.200;2023-08-31T10:29:50;101034.22;;;18.32;57.37
26320;BME280;14024;52.226;5.200;2023-08-31T10:32:20;101030.31;;;18.36;56.64
26320;BME280;14024;52.226;5.200;2023-08-31T10:35:07;101030.06;;;18.50;58.31
26320;BME280;14024;52.226;5.200;2023-08-31T10:37:33;101025.94;;;18.57;58.07
26320;BME280;14024;52.226;5.200;2023-08-31T10:40:11;101029.59;;;18.67;56.05
26320;BME280;14024;52.226;5.200;2023-08-31T10:42:46;101034.22;;;18.20;53.88
26320;BME280;14024;52.226;5.200;2023-08-31T10:45:13;101035.31;;;18.40;53.41
26320;BME280;14024;52.226;5.200;2023-08-31T10:47:42;101042.03;;;18.46;53.39
26320;BME280;14024;52.226;5.200;2023-08-31T10:50:22;101050.06;;;18.79;53.09
26320;BME280;14024;52.226;5.200;2023-08-31T10:52:48;101043.06;;;18.88;51.98
26320;BME280;14024;52.226;5.200;2023-08-31T10:55:14;101041.63;;;19.27;52.03
26320;BME280;14024;52.226;5.200;2023-08-31T10:57:41;101051.91;;;19.22;52.09
26320;BME280;14024;52.226;5.200;2023-08-31T11:00:07;101056.41;;;18.78;56.35
26320;BME280;14024;52.226;5.200;2023-08-31T11:02:44;101057.00;;;17.93;60.17
26320;BME280;14024;52.226;5.200;2023-08-31T11:05:17;101062.06;;;17.62;62.00
26320;BME280;14024;52.226;5.200;2023-08-31T11:07:49;101066.00;;;17.46;62.42
26320;BME280;14024;52.226;5.200;2023-08-31T11:10:22;101069.88;;;17.42;63.48
26320;BME280;14024;52.226;5.200;2023-08-31T11:12:52;101058.91;;;17.45;63.42
26320;BME280;14024;52.226;5.200;2023-08-31T11:15:20;101055.13;;;17.60;63.28
26320;BME280;14024;52.226;5.200;2023-08-31T11:17:47;101054.41;;;17.69;62.91
26320;BME280;14024;52.226;5.200;2023-08-31T11:20:14;101050.06;;;18.12;63.37
26320;BME280;14024;52.226;5.200;2023-08-31T11:22:48;101050.19;;;18.33;62.33
26320;BME280;14024;52.226;5.200;2023-08-31T11:25:18;101053.84;;;18.43;62.33
26320;BME280;14024;52.226;5.200;2023-08-31T11:30:19;101047.09;;;18.93;61.04
26320;BME280;14024;52.226;5.200;2023-08-31T11:32:47;101052.41;;;19.15;59.96
26320;BME280;14024;52.226;5.200;2023-08-31T11:35:14;101043.63;;;19.13;59.09
26320;BME280;14024;52.226;5.200;2023-08-31T11:37:41;101053.66;;;19.32;58.31
26320;BME280;14024;52.226;5.200;2023-08-31T11:40:08;101055.28;;;19.24;54.96
26320;BME280;14024;52.226;5.200;2023-08-31T11:42:34;101050.84;;;19.02;55.05
26320;BME280;14024;52.226;5.200;2023-08-31T11:44:59;101054.38;;;19.13;56.18
26320;BME280;14024;52.226;5.200;2023-08-31T11:47:25;101054.38;;;19.13;55.33
26320;BME280;14024;52.226;5.200;2023-08-31T11:49:51;101055.38;;;19.44;54.64
26320;BME280;14024;52.226;5.200;2023-08-31T11:52:17;101062.19;;;19.48;51.06
26320;BME280;14024;52.226;5.200;2023-08-31T11:54:43;101058.03;;;19.76;49.21
26320;BME280;14024;52.226;5.200;2023-08-31T11:57:10;101057.75;;;19.79;49.57
26320;BME280;14024;52.226;5.200;2023-08-31T11:59:36;101055.72;;;19.72;48.72
26320;BME280;14024;52.226;5.200;2023-08-31T12:02:05;101066.72;;;19.48;47.24
26320;BME280;14024;52.226;5.200;2023-08-31T12:04:31;101065.97;;;19.46;48.18
26320;BME280;14024;52.226;5.200;2023-08-31T12:07:02;101058.91;;;19.45;49.79
26320;BME280;14024;52.226;5.200;2023-08-31T12:09:30;101064.09;;;19.57;48.93
26320;BME280;14024;52.226;5.200;2023-08-31T12:11:56;101054.78;;;20.03;47.45
26320;BME280;14024;52.226;5.200;2023-08-31T12:14:25;101069.47;;;19.57;48.86
26320;BME280;14024;52.226;5.200;2023-08-31T12:16:51;101070.59;;;19.55;48.29
26320;BME280;14024;52.226;5.200;2023-08-31T12:19:18;101069.00;;;19.21;48.23
26320;BME280;14024;52.226;5.200;2023-08-31T12:21:45;101062.59;;;19.33;47.01
26320;BME280;14024;52.226;5.200;2023-08-31T12:24:11;101063.63;;;19.21;47.93
26320;BME280;14024;52.226;5.200;2023-08-31T12:26:37;101061.09;;;19.40;49.16
26320;BME280;14024;52.226;5.200;2023-08-31T12:29:03;101069.81;;;19.64;49.68
26320;BME280;14024;52.226;5.200;2023-08-31T12:31:32;101061.97;;;19.72;49.37
26320;BME280;14024;52.226;5.200;2023-08-31T12:33:58;101074.66;;;19.70;47.26
26320;BME280;14024;52.226;5.200;2023-08-31T12:36:25;101069.03;;;19.52;48.92
26320;BME280;14024;52.226;5.200;2023-08-31T12:38:50;101068.13;;;19.63;47.89
26320;BME280;14024;52.226;5.200;2023-08-31T12:41:17;101055.50;;;19.64;48.92
26320;BME280;14024;52.226;5.200;2023-08-31T12:43:42;101066.47;;;19.72;48.64
26320;BME280;14024;52.226;5.200;2023-08-31T12:46:08;101075.72;;;19.58;47.51
26320;BME280;14024;52.226;5.200;2023-08-31T12:48:35;101076.19;;;19.63;49.20
26320;BME280;14024;52.226;5.200;2023-08-31T12:51:00;101071.19;;;19.79;47.77
26320;BME280;14024;52.226;5.200;2023-08-31T12:53:26;101059.44;;;20.01;47.62
26320;BME280;14024;52.226;5.200;2023-08-31T12:55:52;101076.50;;;19.90;46.96
26320;BME280;14024;52.226;5.200;2023-08-31T12:58:17;101069.75;;;20.26;47.75